Terminal Aerodrome Forecast
Issued by NWS Grand Forks, ND

Home | Current Version | Previous Version | Graphics & Text | Print | Product List | Glossary On
Versions: 1 2 3 4 5 6 7 8 9 10 11 12 13 14 15 16 17 18 19 20 21 22
000
FTUS43 KFGF 251700
TAFGFK
TAF
KGFK 251728Z 2518/2618 VRB04KT P6SM SCT250
     FM252200 19007KT P6SM BKN018
     FM260300 18014G18KT P6SM OVC016
     FM260600 19017G25KT P6SM OVC015
     FM260900 29016G24KT P6SM OVC014=

USA.gov is the U.S. government's official web portal to all federal, state and local government web resources and services.